Terminal Aerodrome Forecast
Issued by NWS

Home | Current Version | Previous Version | Text Only | Print | Product List | Glossary On
Versions: 1 2 3 4 5 6 7 8 9 10 11 12 13 14 15
000
FTUS46 KMTR 240534
TAFMRY
TAF
KMRY 240534Z 2406/2506 12005KT P6SM FEW020
     FM241800 27008KT P6SM FEW020 FEW040
     FM242100 27009KT P6SM SCT020
     FM250300 12004KT P6SM BKN020=

USA.gov is the U.S. government's official web portal to all federal, state and local government web resources and services.